CEB251 RPVM-RPMR
Flight info
| Callsign | CEB251 |
|---|---|
| Flight time | N/A |
| Altitude | 31000 |
| Route | DUMEX4P DUMEX W6A LUMVI/N0445F300 DCT MELBY MELBY3R |
| Aircraft | A339/H-SADE1E2E3GHIJ3J5M1P2RWXY/LB2D1 |
Departure
| Time | 2026-05-07 17:30 |
|---|---|
| Airport | Mactan Cebu International Airport (RPVM) |
Arrival
| Time | N/A |
|---|---|
| Airport | General Santos International Airport (RPMR) |
| Time | Latitude | Longitude | Altitude | Speed | Heading |
|---|---|---|---|---|---|
| 2026-05-07 17:03 | 10.31236 | 123.97812 | 44 ft | 0 kts | 224° |
| 2026-05-07 17:17 | 10.31241 | 123.97817 | 44 ft | 1 kts | 224° |
| 2026-05-07 17:17 | 10.31247 | 123.97823 | 44 ft | 2 kts | 224° |
| 2026-05-07 17:17 | 10.31262 | 123.97837 | 44 ft | 2 kts | 224° |
| 2026-05-07 17:18 | 10.31270 | 123.97845 | 44 ft | 2 kts | 224° |
| 2026-05-07 17:18 | 10.31283 | 123.97857 | 44 ft | 2 kts | 224° |
| 2026-05-07 17:18 | 10.31292 | 123.97866 | 44 ft | 2 kts | 224° |
| 2026-05-07 17:18 | 10.31302 | 123.97876 | 44 ft | 2 kts | 224° |
| 2026-05-07 17:19 | 10.31312 | 123.97885 | 44 ft | 0 kts | 224° |
| 2026-05-07 17:19 | 10.31320 | 123.97892 | 44 ft | 2 kts | 194° |
| 2026-05-07 17:19 | 10.31329 | 123.97892 | 44 ft | 2 kts | 156° |
| 2026-05-07 17:19 | 10.31335 | 123.97889 | 44 ft | 1 kts | 135° |
| 2026-05-07 17:20 | 10.31311 | 123.97911 | 44 ft | 6 kts | 134° |
| 2026-05-07 17:20 | 10.31294 | 123.97929 | 44 ft | 1 kts | 135° |
| 2026-05-07 17:20 | 10.31293 | 123.97929 | 44 ft | 0 kts | 135° |
| 2026-05-07 17:22 | 10.31289 | 123.97934 | 44 ft | 0 kts | 134° |
| 2026-05-07 17:23 | 10.31268 | 123.97955 | 44 ft | 7 kts | 134° |
| 2026-05-07 17:23 | 10.31210 | 123.97974 | 44 ft | 10 kts | 200° |
| 2026-05-07 17:23 | 10.31142 | 123.97921 | 44 ft | 13 kts | 224° |
| 2026-05-07 17:23 | 10.31068 | 123.97847 | 44 ft | 16 kts | 225° |
| 2026-05-07 17:24 | 10.30982 | 123.97759 | 44 ft | 18 kts | 225° |
| 2026-05-07 17:24 | 10.30920 | 123.97696 | 44 ft | 19 kts | 224° |
| 2026-05-07 17:24 | 10.30819 | 123.97595 | 44 ft | 21 kts | 225° |
| 2026-05-07 17:24 | 10.30711 | 123.97487 | 44 ft | 22 kts | 225° |
| 2026-05-07 17:25 | 10.30568 | 123.97343 | 44 ft | 21 kts | 225° |
| 2026-05-07 17:25 | 10.30502 | 123.97278 | 44 ft | 19 kts | 225° |
| 2026-05-07 17:25 | 10.30449 | 123.97225 | 44 ft | 4 kts | 225° |
| 2026-05-07 17:25 | 10.30443 | 123.97219 | 44 ft | 0 kts | 224° |
| 2026-05-07 17:26 | 10.30438 | 123.97214 | 44 ft | 2 kts | 225° |
| 2026-05-07 17:27 | 10.30423 | 123.97199 | 44 ft | 6 kts | 225° |
| 2026-05-07 17:27 | 10.30392 | 123.97173 | 44 ft | 6 kts | 208° |
| 2026-05-07 17:27 | 10.30324 | 123.97192 | 44 ft | 8 kts | 141° |
| 2026-05-07 17:27 | 10.30313 | 123.97203 | 44 ft | 0 kts | 111° |
| 2026-05-07 17:28 | 10.30314 | 123.97206 | 44 ft | 0 kts | 82° |
| 2026-05-07 17:28 | 10.30318 | 123.97219 | 44 ft | 4 kts | 69° |
| 2026-05-07 17:28 | 10.30346 | 123.97260 | 44 ft | 4 kts | 46° |
| 2026-05-07 17:28 | 10.30347 | 123.97261 | 44 ft | 0 kts | 45° |
| 2026-05-07 17:29 | 10.30352 | 123.97266 | 44 ft | 7 kts | 45° |
| 2026-05-07 17:30 | 10.30537 | 123.97456 | 44 ft | 70 kts | 44° |
| 2026-05-07 17:30 | 10.31035 | 123.97952 | 44 ft | 128 kts | 45° |
| 2026-05-07 17:30 | 10.31775 | 123.98695 | 174 ft | 161 kts | 44° |
| 2026-05-07 17:30 | 10.32514 | 123.99422 | 930 ft | 144 kts | 47° |
| 2026-05-07 17:31 | 10.33228 | 124.00143 | 1300 ft | 147 kts | 49° |
| 2026-05-07 17:31 | 10.33710 | 124.00635 | 1547 ft | 149 kts | 49° |
| 2026-05-07 17:31 | 10.34688 | 124.01701 | 1938 ft | 161 kts | 63° |
| 2026-05-07 17:31 | 10.34862 | 124.02844 | 2191 ft | 176 kts | 101° |
| 2026-05-07 17:32 | 10.34530 | 124.03632 | 2373 ft | 190 kts | 121° |
| 2026-05-07 17:32 | 10.33472 | 124.04527 | 2630 ft | 217 kts | 155° |
| 2026-05-07 17:32 | 10.31401 | 124.05085 | 3036 ft | 242 kts | 161° |
| 2026-05-07 17:32 | 10.30268 | 124.05355 | 3248 ft | 254 kts | 161° |
| 2026-05-07 17:33 | 10.28488 | 124.05783 | 3676 ft | 268 kts | 162° |
| 2026-05-07 17:33 | 10.26681 | 124.06220 | 4336 ft | 270 kts | 162° |
| 2026-05-07 17:33 | 10.24842 | 124.06667 | 5027 ft | 272 kts | 161° |
| 2026-05-07 17:33 | 10.22383 | 124.07273 | 5936 ft | 274 kts | 161° |
| 2026-05-07 17:34 | 10.20558 | 124.07728 | 6583 ft | 277 kts | 162° |
| 2026-05-07 17:34 | 10.18675 | 124.08197 | 7226 ft | 279 kts | 162° |
| 2026-05-07 17:34 | 10.16790 | 124.08669 | 7838 ft | 282 kts | 162° |
| 2026-05-07 17:34 | 10.14865 | 124.09151 | 8451 ft | 285 kts | 162° |
| 2026-05-07 17:35 | 10.13579 | 124.09474 | 8849 ft | 286 kts | 162° |
| 2026-05-07 17:35 | 10.11651 | 124.09957 | 9448 ft | 289 kts | 162° |
| 2026-05-07 17:35 | 10.09694 | 124.10445 | 10052 ft | 291 kts | 162° |
| 2026-05-07 17:35 | 10.07688 | 124.10949 | 10470 ft | 301 kts | 162° |
| 2026-05-07 17:36 | 10.05603 | 124.11475 | 10733 ft | 316 kts | 162° |
| 2026-05-07 17:36 | 10.02662 | 124.12215 | 11143 ft | 333 kts | 162° |
| 2026-05-07 17:36 | 10.00377 | 124.12787 | 11619 ft | 339 kts | 162° |
| 2026-05-07 17:36 | 9.98087 | 124.13357 | 12184 ft | 342 kts | 163° |
| 2026-05-07 17:37 | 9.96529 | 124.13745 | 12557 ft | 344 kts | 162° |
| 2026-05-07 17:37 | 9.94187 | 124.14331 | 13102 ft | 348 kts | 162° |
| 2026-05-07 17:37 | 9.91808 | 124.14926 | 13624 ft | 352 kts | 163° |
| 2026-05-07 17:37 | 9.89599 | 124.15481 | 14105 ft | 355 kts | 163° |
| 2026-05-07 17:38 | 9.87051 | 124.16119 | 14656 ft | 358 kts | 162° |
| 2026-05-07 17:38 | 9.84601 | 124.16731 | 15161 ft | 361 kts | 163° |
| 2026-05-07 17:38 | 9.81316 | 124.17553 | 15838 ft | 365 kts | 163° |
| 2026-05-07 17:38 | 9.78853 | 124.18171 | 16322 ft | 368 kts | 163° |
| 2026-05-07 17:39 | 9.77202 | 124.18585 | 16641 ft | 370 kts | 163° |
| 2026-05-07 17:39 | 9.73818 | 124.19431 | 17281 ft | 374 kts | 163° |
| 2026-05-07 17:39 | 9.71293 | 124.20063 | 17750 ft | 377 kts | 163° |
| 2026-05-07 17:39 | 9.68734 | 124.20704 | 18219 ft | 379 kts | 163° |
| 2026-05-07 17:40 | 9.66994 | 124.21139 | 18530 ft | 381 kts | 163° |
| 2026-05-07 17:40 | 9.64407 | 124.21788 | 18990 ft | 384 kts | 163° |
| 2026-05-07 17:40 | 9.61808 | 124.22439 | 19448 ft | 387 kts | 163° |
| 2026-05-07 17:40 | 9.59182 | 124.23096 | 19903 ft | 389 kts | 163° |
| 2026-05-07 17:41 | 9.56544 | 124.23755 | 20345 ft | 391 kts | 163° |
| 2026-05-07 17:41 | 9.53896 | 124.24418 | 20784 ft | 393 kts | 163° |
| 2026-05-07 17:41 | 9.51266 | 124.25125 | 21188 ft | 395 kts | 160° |
| 2026-05-07 17:41 | 9.48610 | 124.25970 | 21603 ft | 397 kts | 159° |
| 2026-05-07 17:42 | 9.45979 | 124.26832 | 22003 ft | 400 kts | 159° |
| 2026-05-07 17:42 | 9.42436 | 124.27994 | 22530 ft | 403 kts | 159° |
| 2026-05-07 17:42 | 9.40669 | 124.28574 | 22797 ft | 405 kts | 159° |
| 2026-05-07 17:42 | 9.37953 | 124.29465 | 23191 ft | 407 kts | 159° |
| 2026-05-07 17:43 | 9.35249 | 124.30351 | 23581 ft | 410 kts | 159° |
| 2026-05-07 17:43 | 9.32535 | 124.31239 | 23974 ft | 412 kts | 159° |
| 2026-05-07 17:43 | 9.28906 | 124.32426 | 24470 ft | 415 kts | 159° |
| 2026-05-07 17:43 | 9.27049 | 124.33031 | 24724 ft | 417 kts | 159° |
| 2026-05-07 17:44 | 9.24302 | 124.33930 | 25092 ft | 419 kts | 159° |
| 2026-05-07 17:44 | 9.21491 | 124.34849 | 25468 ft | 421 kts | 159° |
| 2026-05-07 17:44 | 9.18703 | 124.35761 | 25818 ft | 423 kts | 160° |
| 2026-05-07 17:44 | 9.14928 | 124.36995 | 26281 ft | 426 kts | 160° |
| 2026-05-07 17:45 | 9.13041 | 124.37612 | 26519 ft | 428 kts | 159° |
| 2026-05-07 17:45 | 9.10235 | 124.38529 | 26856 ft | 430 kts | 160° |
| 2026-05-07 17:45 | 9.07361 | 124.39467 | 27204 ft | 431 kts | 159° |
| 2026-05-07 17:45 | 9.04489 | 124.40405 | 27538 ft | 433 kts | 159° |
| 2026-05-07 17:46 | 9.01602 | 124.41348 | 27867 ft | 435 kts | 159° |
| 2026-05-07 17:46 | 8.98727 | 124.42284 | 28165 ft | 438 kts | 159° |
| 2026-05-07 17:46 | 8.95814 | 124.43233 | 28478 ft | 440 kts | 159° |
| 2026-05-07 17:46 | 8.92891 | 124.44187 | 28812 ft | 441 kts | 159° |
| 2026-05-07 17:47 | 8.89983 | 124.45137 | 29218 ft | 440 kts | 160° |
| 2026-05-07 17:47 | 8.87128 | 124.46069 | 29570 ft | 441 kts | 160° |
| 2026-05-07 17:47 | 8.84192 | 124.47026 | 29864 ft | 443 kts | 160° |
| 2026-05-07 17:47 | 8.81218 | 124.47995 | 30164 ft | 445 kts | 160° |
| 2026-05-07 17:48 | 8.78270 | 124.48955 | 30461 ft | 446 kts | 160° |
| 2026-05-07 17:48 | 8.75331 | 124.49915 | 30766 ft | 447 kts | 160° |
| 2026-05-07 17:48 | 8.69392 | 124.51850 | 30818 ft | 449 kts | 160° |
| 2026-05-07 17:49 | 8.63438 | 124.53787 | 30837 ft | 449 kts | 160° |
| 2026-05-07 17:49 | 8.57455 | 124.55740 | 30852 ft | 449 kts | 161° |
| 2026-05-07 17:50 | 8.51510 | 124.57676 | 30846 ft | 448 kts | 161° |
| 2026-05-07 17:50 | 8.45519 | 124.59493 | 30867 ft | 448 kts | 165° |
| 2026-05-07 17:51 | 8.38277 | 124.60733 | 30897 ft | 450 kts | 174° |
| 2026-05-07 17:51 | 8.33073 | 124.60960 | 30903 ft | 450 kts | 179° |
| 2026-05-07 17:52 | 8.25772 | 124.60971 | 30930 ft | 450 kts | 179° |
| 2026-05-07 17:52 | 8.19477 | 124.60975 | 30851 ft | 451 kts | 179° |
| 2026-05-07 17:53 | 8.17375 | 124.60978 | 30494 ft | 455 kts | 179° |
| 2026-05-07 17:53 | 8.14163 | 124.60980 | 29775 ft | 460 kts | 179° |
| 2026-05-07 17:53 | 8.10994 | 124.60984 | 29188 ft | 460 kts | 178° |
| 2026-05-07 17:53 | 8.06708 | 124.60990 | 28451 ft | 459 kts | 178° |
| 2026-05-07 17:54 | 8.04579 | 124.60994 | 28130 ft | 457 kts | 178° |
| 2026-05-07 17:54 | 8.01397 | 124.61002 | 27774 ft | 449 kts | 178° |
| 2026-05-07 17:54 | 7.98313 | 124.61008 | 27450 ft | 438 kts | 178° |
| 2026-05-07 17:54 | 7.95268 | 124.61014 | 27116 ft | 434 kts | 178° |
| 2026-05-07 17:55 | 7.91256 | 124.61023 | 26651 ft | 429 kts | 178° |
| 2026-05-07 17:55 | 7.88258 | 124.61029 | 26289 ft | 425 kts | 178° |
| 2026-05-07 17:55 | 7.86267 | 124.61033 | 26048 ft | 423 kts | 178° |
| 2026-05-07 17:55 | 7.83315 | 124.61041 | 25695 ft | 420 kts | 178° |
| 2026-05-07 17:56 | 7.79434 | 124.61050 | 25221 ft | 415 kts | 178° |
| 2026-05-07 17:56 | 7.77521 | 124.61053 | 24993 ft | 413 kts | 178° |
| 2026-05-07 17:56 | 7.74628 | 124.61060 | 24637 ft | 410 kts | 178° |
| 2026-05-07 17:56 | 7.71787 | 124.61066 | 24293 ft | 407 kts | 177° |
| 2026-05-07 17:57 | 7.68030 | 124.61073 | 23827 ft | 403 kts | 177° |
| 2026-05-07 17:57 | 7.66165 | 124.61078 | 23593 ft | 401 kts | 178° |
| 2026-05-07 17:57 | 7.63368 | 124.61083 | 23242 ft | 398 kts | 177° |
| 2026-05-07 17:57 | 7.59686 | 124.61092 | 22774 ft | 395 kts | 177° |
| 2026-05-07 17:58 | 7.57836 | 124.61095 | 22540 ft | 393 kts | 177° |
| 2026-05-07 17:58 | 7.55114 | 124.61103 | 22195 ft | 391 kts | 177° |
| 2026-05-07 17:58 | 7.52408 | 124.61108 | 21852 ft | 389 kts | 177° |
| 2026-05-07 17:58 | 7.48776 | 124.61118 | 21370 ft | 386 kts | 177° |
| 2026-05-07 17:59 | 7.46992 | 124.61121 | 21130 ft | 385 kts | 177° |
| 2026-05-07 17:59 | 7.44299 | 124.61126 | 20769 ft | 383 kts | 177° |
| 2026-05-07 17:59 | 7.40762 | 124.61134 | 20294 ft | 381 kts | 177° |
| 2026-05-07 17:59 | 7.38090 | 124.61140 | 19931 ft | 380 kts | 177° |
| 2026-05-07 18:00 | 7.36316 | 124.61143 | 19691 ft | 379 kts | 177° |
| 2026-05-07 18:00 | 7.33666 | 124.61150 | 19337 ft | 377 kts | 177° |
| 2026-05-07 18:00 | 7.31044 | 124.61155 | 18978 ft | 376 kts | 177° |
| 2026-05-07 18:00 | 7.28438 | 124.61159 | 18621 ft | 375 kts | 177° |
| 2026-05-07 18:01 | 7.25819 | 124.61167 | 18264 ft | 374 kts | 177° |
| 2026-05-07 18:01 | 7.23211 | 124.61172 | 17896 ft | 372 kts | 177° |
| 2026-05-07 18:01 | 7.20595 | 124.61176 | 17562 ft | 371 kts | 176° |
| 2026-05-07 18:01 | 7.18014 | 124.61181 | 17214 ft | 370 kts | 176° |
| 2026-05-07 18:02 | 7.12853 | 124.61195 | 16516 ft | 367 kts | 177° |
| 2026-05-07 18:02 | 7.10309 | 124.61200 | 16168 ft | 366 kts | 176° |
| 2026-05-07 18:02 | 7.07732 | 124.61204 | 15829 ft | 364 kts | 176° |
| 2026-05-07 18:03 | 7.05227 | 124.61210 | 15499 ft | 362 kts | 176° |
| 2026-05-07 18:03 | 7.02695 | 124.61217 | 15178 ft | 360 kts | 176° |
| 2026-05-07 18:03 | 7.00177 | 124.61221 | 14829 ft | 359 kts | 176° |
| 2026-05-07 18:03 | 6.97708 | 124.61227 | 14507 ft | 357 kts | 177° |
| 2026-05-07 18:04 | 6.95195 | 124.61233 | 14161 ft | 355 kts | 176° |
| 2026-05-07 18:04 | 6.92735 | 124.61238 | 13825 ft | 354 kts | 177° |
| 2026-05-07 18:04 | 6.89427 | 124.61244 | 13374 ft | 351 kts | 177° |
| 2026-05-07 18:04 | 6.87824 | 124.61249 | 13157 ft | 350 kts | 177° |
| 2026-05-07 18:05 | 6.84560 | 124.61254 | 12720 ft | 348 kts | 176° |
| 2026-05-07 18:05 | 6.82953 | 124.61258 | 12502 ft | 346 kts | 177° |
| 2026-05-07 18:05 | 6.80515 | 124.61265 | 12176 ft | 345 kts | 176° |
| 2026-05-07 18:05 | 6.78127 | 124.61269 | 11848 ft | 343 kts | 177° |
| 2026-05-07 18:06 | 6.75741 | 124.61275 | 11527 ft | 341 kts | 177° |
| 2026-05-07 18:06 | 6.73344 | 124.61281 | 11196 ft | 340 kts | 177° |
| 2026-05-07 18:06 | 6.71001 | 124.61285 | 10880 ft | 338 kts | 177° |
| 2026-05-07 18:06 | 6.68622 | 124.61313 | 10564 ft | 335 kts | 172° |
| 2026-05-07 18:07 | 6.66388 | 124.61855 | 10227 ft | 329 kts | 153° |
| 2026-05-07 18:07 | 6.64469 | 124.63026 | 10139 ft | 314 kts | 141° |
| 2026-05-07 18:07 | 6.62749 | 124.64336 | 10120 ft | 302 kts | 140° |
| 2026-05-07 18:07 | 6.60588 | 124.66008 | 10091 ft | 288 kts | 140° |
| 2026-05-07 18:08 | 6.59010 | 124.67222 | 9879 ft | 285 kts | 140° |
| 2026-05-07 18:08 | 6.57959 | 124.68028 | 9681 ft | 285 kts | 140° |
| 2026-05-07 18:08 | 6.56357 | 124.69252 | 9396 ft | 285 kts | 140° |
| 2026-05-07 18:08 | 6.54784 | 124.70450 | 9124 ft | 284 kts | 140° |
| 2026-05-07 18:09 | 6.52689 | 124.72044 | 8765 ft | 283 kts | 140° |
| 2026-05-07 18:09 | 6.51625 | 124.72854 | 8582 ft | 283 kts | 140° |
| 2026-05-07 18:09 | 6.50061 | 124.74041 | 8315 ft | 282 kts | 141° |
| 2026-05-07 18:09 | 6.48486 | 124.75236 | 8048 ft | 281 kts | 140° |
| 2026-05-07 18:10 | 6.46934 | 124.76414 | 7787 ft | 281 kts | 141° |
| 2026-05-07 18:10 | 6.45376 | 124.77595 | 7526 ft | 280 kts | 141° |
| 2026-05-07 18:10 | 6.43800 | 124.78790 | 7261 ft | 280 kts | 141° |
| 2026-05-07 18:10 | 6.42255 | 124.79961 | 6999 ft | 279 kts | 141° |
| 2026-05-07 18:11 | 6.40198 | 124.81522 | 6655 ft | 278 kts | 141° |
| 2026-05-07 18:11 | 6.39185 | 124.82357 | 6473 ft | 277 kts | 135° |
| 2026-05-07 18:11 | 6.37882 | 124.83785 | 6206 ft | 275 kts | 125° |
| 2026-05-07 18:11 | 6.36756 | 124.85343 | 5943 ft | 275 kts | 123° |
| 2026-05-07 18:12 | 6.35672 | 124.86908 | 5685 ft | 274 kts | 123° |
| 2026-05-07 18:12 | 6.34589 | 124.88478 | 5426 ft | 274 kts | 123° |
| 2026-05-07 18:12 | 6.33502 | 124.90045 | 5167 ft | 274 kts | 123° |
| 2026-05-07 18:12 | 6.32411 | 124.91609 | 4906 ft | 273 kts | 124° |
| 2026-05-07 18:13 | 6.30946 | 124.93705 | 4557 ft | 273 kts | 124° |
| 2026-05-07 18:13 | 6.30220 | 124.94743 | 4385 ft | 273 kts | 124° |
| 2026-05-07 18:13 | 6.28754 | 124.96835 | 4048 ft | 272 kts | 124° |
| 2026-05-07 18:13 | 6.28052 | 124.97884 | 3983 ft | 266 kts | 119° |
| 2026-05-07 18:14 | 6.27275 | 124.99519 | 3914 ft | 258 kts | 108° |
| 2026-05-07 18:14 | 6.26719 | 125.01238 | 3742 ft | 254 kts | 106° |
| 2026-05-07 18:14 | 6.26222 | 125.02910 | 3591 ft | 249 kts | 105° |
| 2026-05-07 18:14 | 6.25736 | 125.04549 | 3406 ft | 239 kts | 106° |
| 2026-05-07 18:15 | 6.25189 | 125.06072 | 3271 ft | 224 kts | 124° |
| 2026-05-07 18:15 | 6.24098 | 125.07067 | 3266 ft | 206 kts | 152° |
| 2026-05-07 18:15 | 6.22761 | 125.07536 | 3250 ft | 196 kts | 166° |
| 2026-05-07 18:15 | 6.21444 | 125.07746 | 3169 ft | 187 kts | 172° |
| 2026-05-07 18:16 | 6.20141 | 125.07886 | 3084 ft | 187 kts | 173° |
| 2026-05-07 18:16 | 6.18835 | 125.08025 | 2846 ft | 186 kts | 172° |
| 2026-05-07 18:16 | 6.17122 | 125.08227 | 2509 ft | 182 kts | 172° |
| 2026-05-07 18:16 | 6.16146 | 125.08349 | 2307 ft | 178 kts | 171° |